Time;durP1;ratioP1;P1;durP2;ratioP2;P2;SDS_P1;SDS_P2;PMS_P1;PMS_P2;Temp;Humidity;BMP_temperature;BMP_pressure;BME280_temperature;BME280_humidity;BME280_pressure;Samples;Min_cycle;Max_cycle;Signal;HPM_P1;HPM_P2
2022/04/26 03:36:56;;;;;;;26.30;7.67;;;;;;;16.26;74.36;99105.44;5013316;28;20201;-68
2022/04/26 03:39:23;;;;;;;22.30;7.07;;;;;;;16.26;75.00;99110.78;5013041;28;20222;-69
2022/04/26 03:41:49;;;;;;;27.60;6.47;;;;;;;16.25;74.82;99114.53;5013222;28;20205;-68
2022/04/26 03:44:16;;;;;;;21.03;5.53;;;;;;;16.27;75.16;99117.78;5012793;28;20256;-69
2022/04/26 03:46:43;;;;;;;21.77;6.07;;;;;;;16.26;75.49;99118.84;5013390;28;20198;-69
2022/04/26 03:49:11;;;;;;;27.73;6.13;;;;;;;16.28;75.33;99120.22;5013079;28;20222;-69
2022/04/26 03:51:37;;;;;;;26.30;7.00;;;;;;;16.34;75.26;99127.31;5012987;28;20272;-72
2022/04/26 03:54:04;;;;;;;16.83;5.43;;;;;;;16.42;75.10;99123.44;5012578;28;20199;-73
2022/04/26 03:56:31;;;;;;;23.87;5.37;;;;;;;16.65;78.12;99120.63;5012553;28;20206;-72
2022/04/26 03:58:57;;;;;;;30.50;6.17;;;;;;;17.08;79.78;99131.47;5012392;28;20699;-73
2022/04/26 04:01:24;;;;;;;17.60;5.47;;;;;;;17.51;80.38;99137.75;5012460;28;20747;-73
2022/04/26 04:03:51;;;;;;;21.63;6.73;;;;;;;17.88;70.48;99148.69;5012318;28;20261;-73
2022/04/26 04:06:19;;;;;;;19.37;6.67;;;;;;;18.03;72.04;99146.97;5012465;28;20660;-71
2022/04/26 04:08:46;;;;;;;26.60;6.37;;;;;;;18.12;72.58;99150.00;5012668;28;20194;-71
2022/04/26 04:11:12;;;;;;;24.97;6.83;;;;;;;18.35;70.93;99155.97;5012394;28;20225;-71
2022/04/26 04:13:39;;;;;;;23.00;6.40;;;;;;;18.43;65.21;99168.13;5012315;28;20632;-70
2022/04/26 04:16:06;;;;;;;43.97;7.60;;;;;;;18.47;65.00;99174.63;5012559;28;20264;-66
2022/04/26 04:21:19;;;;;;;19.17;6.27;;;;;;;19.19;63.31;99175.78;5011640;28;20293;-67
2022/04/26 04:23:46;;;;;;;27.70;7.07;;;;;;;19.81;62.55;99176.69;5012464;28;20190;-67
2022/04/26 04:26:12;;;;;;;23.90;6.93;;;;;;;19.98;59.17;99188.88;5012023;28;20256;-66
2022/04/26 04:28:39;;;;;;;24.83;7.03;;;;;;;19.96;57.86;99184.81;5012033;28;20199;-66
2022/04/26 04:31:07;;;;;;;26.40;6.60;;;;;;;20.08;57.28;99188.09;5012057;28;20689;-65
2022/04/26 04:33:34;;;;;;;14.23;5.87;;;;;;;20.57;55.57;99189.34;5011870;28;20201;-64
2022/04/26 04:36:00;;;;;;;22.83;5.40;;;;;;;21.38;54.70;99196.41;5012066;28;20275;-66
2022/04/26 04:38:28;;;;;;;23.73;6.50;;;;;;;22.36;52.52;99200.94;5012452;28;20248;-67
2022/04/26 04:40:55;;;;;;;28.20;6.87;;;;;;;23.22;48.31;99214.72;5011749;28;20773;-63
2022/04/26 04:43:22;;;;;;;16.17;5.23;;;;;;;23.41;44.19;99205.63;5012186;28;20194;-63
2022/04/26 04:45:49;;;;;;;17.73;4.60;;;;;;;23.32;44.74;99201.91;5012096;28;20194;-64
2022/04/26 04:48:16;;;;;;;9.80;4.73;;;;;;;23.55;43.24;99217.41;5012371;28;20268;-63
2022/04/26 04:50:42;;;;;;;15.33;4.63;;;;;;;23.31;42.95;99196.75;5011776;28;20275;-64
2022/04/26 04:53:09;;;;;;;29.60;6.03;;;;;;;23.12;42.94;99199.34;5009648;28;20810;-64
2022/04/26 04:55:39;;;;;;;26.37;5.60;;;;;;;23.38;44.05;99199.94;5009584;28;20633;-66
2022/04/26 04:58:06;;;;;;;28.50;6.73;;;;;;;23.68;41.84;99189.59;5009912;28;20183;-65
2022/04/26 05:00:33;;;;;;;20.20;4.03;;;;;;;23.68;40.52;99205.88;5010345;28;20237;-64
2022/04/26 05:03:00;;;;;;;8.17;3.60;;;;;;;23.89;40.46;99199.13;5010226;28;20195;-64
2022/04/26 05:05:26;;;;;;;13.47;3.17;;;;;;;24.43;41.59;99207.66;5010926;28;20669;-67
2022/04/26 05:07:54;;;;;;;26.10;4.07;;;;;;;24.61;41.72;99212.34;5012245;28;20203;-67
2022/04/26 05:10:21;;;;;;;13.70;4.27;;;;;;;25.20;40.33;99213.59;5011817;28;20208;-66
2022/04/26 05:12:49;;;;;;;13.47;3.90;;;;;;;26.15;38.50;99225.47;5011628;28;20200;-66
2022/04/26 05:15:16;;;;;;;28.43;5.30;;;;;;;26.48;37.30;99219.56;5011652;28;20244;-68
2022/04/26 05:17:42;;;;;;;15.23;4.33;;;;;;;27.06;35.94;99231.31;5011854;28;20702;-65
2022/04/26 05:20:10;;;;;;;14.70;4.30;;;;;;;27.43;34.70;99209.13;5011460;28;20222;-66
2022/04/26 05:25:18;;;;;;;36.87;5.10;;;;;;;28.60;32.13;99217.31;5010765;28;20215;-64
2022/04/26 05:27:44;;;;;;;13.73;3.70;;;;;;;29.20;31.42;99220.06;5013951;28;20194;-64
2022/04/26 05:30:13;;;;;;;11.57;3.70;;;;;;;29.67;30.47;99219.00;5015338;28;20561;-64
2022/04/26 05:32:40;;;;;;;15.70;3.73;;;;;;;30.69;29.26;99224.00;5009850;28;20735;-65
2022/04/26 05:35:07;;;;;;;6.03;2.97;;;;;;;30.74;29.13;99221.03;5014711;28;20223;-66
2022/04/26 05:37:34;;;;;;;8.23;3.20;;;;;;;31.53;28.08;99224.38;5014701;28;20260;-65
2022/04/26 05:40:03;;;;;;;14.13;3.40;;;;;;;31.98;27.21;99222.41;5014247;28;20222;-67
2022/04/26 05:42:30;;;;;;;10.20;3.33;;;;;;;31.74;26.50;99235.28;5014927;28;20198;-65
2022/04/26 05:44:57;;;;;;;9.70;3.10;;;;;;;31.80;25.49;99225.72;5013791;28;20745;-65
2022/04/26 05:47:31;;;;;;;6.10;3.10;;;;;;;31.55;26.40;99235.81;5013874;28;20190;-66
2022/04/26 05:49:58;;;;;;;14.20;3.30;;;;;;;31.52;26.85;99231.00;5010581;28;20190;-67
2022/04/26 05:52:25;;;;;;;10.07;3.30;;;;;;;31.34;26.95;99235.06;5013465;28;20252;-66
2022/04/26 05:54:52;;;;;;;14.17;3.70;;;;;;;31.26;27.73;99226.91;5011391;28;20190;-66
2022/04/26 05:57:19;;;;;;;11.93;4.00;;;;;;;31.22;27.28;99235.00;5013658;28;20194;-65
2022/04/26 05:59:45;;;;;;;14.90;3.53;;;;;;;31.32;27.70;99226.34;5014785;28;20221;-65
2022/04/26 06:02:12;;;;;;;6.13;3.63;;;;;;;31.03;27.43;99229.19;5014510;28;20194;-65
2022/04/26 06:04:40;;;;;;;10.40;3.93;;;;;;;31.10;27.13;99229.47;5014369;28;20198;-65
2022/04/26 06:07:07;;;;;;;12.77;3.30;;;;;;;31.52;25.26;99233.75;5014459;28;20252;-66
2022/04/26 06:09:34;;;;;;;9.13;3.57;;;;;;;31.81;26.04;99225.34;5014328;28;20623;-66
2022/04/26 06:12:00;;;;;;;16.43;3.73;;;;;;;31.46;26.38;99215.88;5014722;28;20190;-66
2022/04/26 06:14:32;;;;;;;8.30;3.30;;;;;;;31.41;27.51;99220.78;5013343;28;20194;-68
2022/04/26 06:16:59;;;;;;;11.50;3.73;;;;;;;31.50;26.99;99226.97;5014468;28;20292;-66
2022/04/26 06:19:25;;;;;;;18.27;4.50;;;;;;;30.94;28.77;99228.47;5014689;28;20280;-68
2022/04/26 06:21:53;;;;;;;13.63;3.63;;;;;;;30.62;29.52;99223.69;5011630;28;20198;-67
2022/04/26 06:24:20;;;;;;;8.03;3.37;;;;;;;30.14;28.50;99211.56;5013638;28;20194;-67
2022/04/26 06:27:02;;;;;;;14.00;3.47;;;;;;;29.72;29.50;99227.03;5011384;28;20229;-67
2022/04/26 06:29:29;;;;;;;9.23;3.40;;;;;;;29.39;30.15;99217.75;5008140;28;20182;-68
2022/04/26 06:31:56;;;;;;;11.20;3.60;;;;;;;29.28;29.31;99224.72;5012492;28;20292;-67
2022/04/26 06:34:23;;;;;;;13.60;3.23;;;;;;;29.22;30.19;99206.06;5013796;28;20206;-67
2022/04/26 06:36:49;;;;;;;4.50;3.20;;;;;;;29.22;30.13;99206.84;5012026;28;20198;-68
2022/04/26 06:39:17;;;;;;;10.47;3.50;;;;;;;29.27;30.23;99204.75;5010570;28;20263;-66
2022/04/26 06:41:44;;;;;;;21.50;2.90;;;;;;;29.39;27.67;99215.03;5011344;28;20809;-67
2022/04/26 06:44:11;;;;;;;14.67;2.90;;;;;;;29.16;28.28;99208.94;5011693;28;20256;-66
2022/04/26 06:46:38;;;;;;;11.53;3.27;;;;;;;29.55;29.03;99202.41;5012404;28;20293;-66
2022/04/26 06:49:05;;;;;;;11.17;2.80;;;;;;;30.09;26.88;99209.78;5013471;28;20687;-66
2022/04/26 06:51:35;;;;;;;13.23;3.10;;;;;;;30.05;27.32;99208.84;5013380;28;20565;-68
2022/04/26 06:54:01;;;;;;;9.90;2.87;;;;;;;29.82;28.98;99199.31;5013880;28;20334;-67
2022/04/26 06:56:29;;;;;;;8.37;2.87;;;;;;;29.79;28.82;99204.63;5009421;28;20227;-67
2022/04/26 06:58:56;;;;;;;14.80;3.03;;;;;;;29.75;28.65;99201.75;4993605;28;20249;-65
2022/04/26 07:01:23;;;;;;;11.80;2.20;;;;;;;29.58;29.08;99203.72;4993870;28;20273;-66
2022/04/26 07:03:50;;;;;;;9.77;2.73;;;;;;;29.86;27.53;99205.72;4993783;28;20281;-65
2022/04/26 07:06:16;;;;;;;13.73;2.47;;;;;;;30.10;28.55;99208.69;4995465;28;20676;-65
2022/04/26 07:08:43;;;;;;;7.73;2.00;;;;;;;30.23;26.53;99207.66;5013542;28;20194;-65
2022/04/26 07:11:10;;;;;;;13.47;2.63;;;;;;;30.47;25.74;99209.75;5013413;28;20198;-65
2022/04/26 07:13:38;;;;;;;12.83;2.40;;;;;;;30.74;26.62;99199.09;5008746;28;20630;-65
2022/04/26 07:16:06;;;;;;;7.67;2.90;;;;;;;30.96;25.46;99209.75;4993625;28;20227;-67
2022/04/26 07:18:33;;;;;;;8.60;3.00;;;;;;;31.23;25.96;99211.91;4996083;28;20199;-67
2022/04/26 07:21:00;;;;;;;6.43;2.60;;;;;;;31.44;24.28;99204.44;5013385;28;20257;-62
2022/04/26 07:23:27;;;;;;;6.23;2.73;;;;;;;31.14;24.56;99208.44;5013507;28;20202;-66
2022/04/26 07:25:55;;;;;;;6.63;2.40;;;;;;;30.93;25.53;99199.44;5013769;28;20197;-66
2022/04/26 07:28:22;;;;;;;11.17;3.00;;;;;;;30.90;25.47;99205.59;4996152;28;20204;-67
2022/04/26 07:30:50;;;;;;;13.77;2.80;;;;;;;30.80;25.37;99199.69;4990678;28;20206;-67
2022/04/26 07:36:01;;;;;;;8.20;2.67;;;;;;;30.80;25.69;99205.19;4992823;28;20186;-66
2022/04/26 07:38:27;;;;;;;11.50;2.33;;;;;;;30.37;26.39;99210.94;4997240;28;20205;-66
2022/04/26 07:40:54;;;;;;;7.57;2.73;;;;;;;30.64;26.20;99204.97;5012867;28;20244;-66
2022/04/26 07:43:21;;;;;;;7.47;2.50;;;;;;;30.97;26.14;99205.84;5012875;28;21139;-66
2022/04/26 07:45:48;;;;;;;4.10;2.33;;;;;;;31.02;25.05;99208.38;5012580;28;20766;-68
2022/04/26 07:48:17;;;;;;;10.03;3.13;;;;;;;30.83;26.09;99205.31;5012484;28;20277;-67
2022/04/26 07:50:46;;;;;;;8.33;2.60;;;;;;;30.81;26.54;99210.34;5013385;28;20281;-65
2022/04/26 07:53:13;;;;;;;49.80;5.10;;;;;;;30.97;25.88;99205.84;5012373;28;20198;-63
2022/04/26 07:55:40;;;;;;;9.70;2.83;;;;;;;30.92;26.07;99210.72;5012144;28;20633;-64
2022/04/26 07:58:06;;;;;;;10.30;2.60;;;;;;;31.15;26.06;99209.25;5010723;28;20190;-61
2022/04/26 08:00:33;;;;;;;9.13;2.33;;;;;;;29.29;28.14;99205.22;5011618;28;20271;-61
2022/04/26 08:03:02;;;;;;;14.93;2.83;;;;;;;29.55;27.50;99204.38;5011576;28;20239;-60
2022/04/26 08:05:30;;;;;;;10.17;3.00;;;;;;;29.59;27.75;99184.25;5009370;28;20202;-60
2022/04/26 08:07:57;;;;;;;15.03;3.40;;;;;;;29.75;29.45;99198.19;5009460;28;20197;-63
2022/04/26 08:10:24;;;;;;;9.00;2.63;;;;;;;29.79;28.64;99194.47;5011867;28;20259;-62
2022/04/26 08:12:51;;;;;;;15.97;2.97;;;;;;;29.77;29.64;99191.28;5013232;28;20190;-64
2022/04/26 08:15:19;;;;;;;8.93;2.83;;;;;;;29.90;29.44;99192.97;5011807;28;20648;-65
2022/04/26 08:17:48;;;;;;;11.90;2.63;;;;;;;29.83;28.74;99187.22;5012362;28;20201;-69
2022/04/26 08:20:22;;;;;;;9.53;3.23;;;;;;;29.79;29.49;99193.66;5008856;28;20280;-66
2022/04/26 08:22:50;;;;;;;5.37;2.93;;;;;;;29.40;30.15;99192.00;5011811;28;20185;-65
2022/04/26 08:28:02;;;;;;;13.83;3.13;;;;;;;29.68;29.70;99182.25;5012232;28;20186;-65
2022/04/26 08:30:29;;;;;;;8.47;3.70;;;;;;;29.76;30.12;99184.16;5010699;28;20212;-63
2022/04/26 08:32:56;;;;;;;9.67;4.43;;;;;;;30.06;29.26;99183.06;4992074;28;20257;-65
2022/04/26 08:35:24;;;;;;;13.63;3.97;;;;;;;30.26;29.68;99179.59;4991905;28;20198;-63
2022/04/26 08:37:53;;;;;;;10.77;4.97;;;;;;;30.03;30.26;99180.97;4991568;28;20198;-64
2022/04/26 08:40:19;;;;;;;9.93;3.67;;;;;;;29.55;29.81;99194.19;4996539;28;20556;-64
2022/04/26 08:42:47;;;;;;;7.83;3.70;;;;;;;29.79;29.03;99194.47;5010376;28;20194;-64
2022/04/26 08:45:16;;;;;;;5.67;3.73;;;;;;;29.40;30.16;99181.06;5010022;28;20213;-64
2022/04/26 08:53:16;;;;;;;10.13;3.57;;;;;;;30.25;27.92;99188.94;5010215;28;20208;-63
2022/04/26 08:55:44;;;;;;;13.10;3.80;;;;;;;30.37;27.19;99182.75;5010285;28;20182;-64
2022/04/26 08:58:12;;;;;;;4.90;3.03;;;;;;;30.32;27.37;99185.66;4998983;28;20199;-64
2022/04/26 09:00:40;;;;;;;5.33;2.70;;;;;;;30.53;26.95;99176.31;4990562;28;20317;-62
2022/04/26 09:03:08;;;;;;;5.27;2.13;;;;;;;30.55;26.67;99182.28;4993902;28;20198;-63
2022/04/26 09:05:36;;;;;;;5.43;1.93;;;;;;;30.52;26.04;99163.75;5005001;28;20194;-65
2022/04/26 09:08:21;;;;;;;2.57;1.40;;;;;;;30.31;25.18;99173.91;5014703;28;20197;-66
2022/04/26 09:10:49;;;;;;;6.27;1.73;;;;;;;29.81;25.58;99170.31;5014641;28;20198;-64
2022/04/26 09:13:19;;;;;;;4.00;1.20;;;;;;;29.51;25.89;99168.63;5014847;28;20194;-65
2022/04/26 09:15:49;;;;;;;4.50;1.63;;;;;;;29.59;26.76;99150.59;5012145;28;20268;-62
2022/04/26 09:18:20;;;;;;;3.07;1.83;;;;;;;29.56;26.53;99162.94;5007339;28;20193;-63
2022/04/26 09:20:48;;;;;;;6.93;2.17;;;;;;;29.48;27.68;99146.56;5015159;28;20280;-62
2022/04/26 09:23:16;;;;;;;4.37;1.70;;;;;;;29.49;26.72;99159.94;5015102;28;20289;-63
2022/04/26 09:25:45;;;;;;;4.33;2.20;;;;;;;29.69;26.91;99145.56;5013961;28;20256;-63
2022/04/26 09:28:20;;;;;;;6.83;2.10;;;;;;;29.91;26.71;99148.00;5012357;28;20202;-66
2022/04/26 09:30:48;;;;;;;5.10;1.60;;;;;;;29.67;26.80;99142.34;4994671;28;20651;-62
2022/04/26 09:33:31;;;;;;;6.63;1.80;;;;;;;29.89;26.17;99149.47;4995209;28;20609;-62
2022/04/26 09:36:01;;;;;;;3.50;1.70;;;;;;;30.05;26.92;99140.34;4995720;28;20207;-63
2022/04/26 09:38:31;;;;;;;6.53;1.73;;;;;;;30.20;26.66;99144.47;4995694;28;20644;-63
2022/04/26 09:41:02;;;;;;;3.80;1.60;;;;;;;30.19;25.71;99127.25;5005142;28;20209;-64
2022/04/26 09:43:29;;;;;;;4.00;1.87;;;;;;;29.78;26.24;99153.72;5011407;28;20206;-63
2022/04/26 09:45:58;;;;;;;6.40;1.67;;;;;;;29.92;26.34;99143.34;5013806;28;20193;-64
2022/04/26 09:48:29;;;;;;;3.07;1.67;;;;;;;30.06;26.02;99141.97;5012327;28;20240;-62
2022/04/26 09:50:57;;;;;;;5.00;1.77;;;;;;;29.88;26.48;99140.44;5012996;28;20197;-64
2022/04/26 09:53:25;;;;;;;5.07;2.00;;;;;;;29.87;26.14;99140.78;5013638;28;20281;-63
2022/04/26 09:55:55;;;;;;;5.77;1.40;;;;;;;29.92;26.13;99130.44;5012914;28;20205;-62
2022/04/26 09:58:26;;;;;;;4.97;1.80;;;;;;;29.87;26.08;99136.09;5014100;28;20710;-62
2022/04/26 10:00:54;;;;;;;5.47;2.00;;;;;;;29.93;25.89;99129.28;5012307;28;20609;-62
2022/04/26 10:03:24;;;;;;;2.70;1.50;;;;;;;29.86;25.60;99134.50;5009075;28;20684;-65
2022/04/26 10:06:00;;;;;;;4.50;1.77;;;;;;;29.82;26.46;99119.88;5013092;28;20273;-64
2022/04/26 10:08:29;;;;;;;3.30;1.90;;;;;;;29.89;26.50;99122.91;5011576;28;20208;-65
2022/04/26 10:10:56;;;;;;;3.93;1.77;;;;;;;29.66;26.74;99135.25;5011880;28;20198;-68
2022/04/26 10:13:35;;;;;;;8.67;1.67;;;;;;;29.90;26.78;99123.69;5011706;28;20204;-65
2022/04/26 10:16:04;;;;;;;8.40;1.67;;;;;;;29.98;27.09;99125.56;5014803;28;20232;-66
2022/04/26 10:18:34;;;;;;;5.37;1.60;;;;;;;29.89;25.75;99122.09;5014425;28;20198;-65
2022/04/26 10:21:01;;;;;;;7.17;1.40;;;;;;;29.83;25.45;99110.50;5013932;28;20556;-65
2022/04/26 10:23:28;;;;;;;3.77;1.93;;;;;;;28.99;26.29;99109.69;5010079;28;20194;-69
2022/04/26 10:26:24;;;;;;;4.27;1.40;;;;;;;29.31;26.48;99103.63;5012147;28;20204;-66
2022/04/26 10:29:00;;;;;;;7.27;2.13;;;;;;;28.80;27.24;99101.84;5013037;28;20190;-65
2022/04/26 10:31:39;;;;;;;3.57;2.03;;;;;;;28.86;26.58;99105.19;5012997;28;20214;-65
2022/04/26 10:34:26;;;;;;;4.33;1.90;;;;;;;28.94;26.44;99107.09;5014109;28;20186;-64
2022/04/26 10:36:54;;;;;;;2.57;1.37;;;;;;;28.93;26.87;99100.03;5012663;28;20623;-62
2022/04/26 10:39:25;;;;;;;6.67;1.70;;;;;;;29.26;27.52;99106.56;5013200;28;20296;-64
2022/04/26 10:41:53;;;;;;;4.53;1.47;;;;;;;28.89;26.93;99115.47;5013263;28;20237;-63
2022/04/26 10:44:26;;;;;;;1.70;1.33;;;;;;;28.68;26.81;99126.28;5013142;28;20362;-64
2022/04/26 10:47:25;;;;;;;3.33;2.00;;;;;;;28.62;26.72;99133.03;5013284;28;20652;-66
2022/04/26 10:49:53;;;;;;;6.10;1.50;;;;;;;28.78;27.05;99127.88;5012430;28;20259;-63
2022/04/26 10:52:40;;;;;;;5.03;1.60;;;;;;;28.22;27.69;99103.44;5013347;28;20205;-64
2022/04/26 10:55:18;;;;;;;3.13;1.60;;;;;;;28.11;27.65;99111.13;5012079;28;20209;-63
2022/04/26 10:57:47;;;;;;;4.57;1.30;;;;;;;27.64;28.36;99111.16;5013120;28;20677;-63
2022/04/26 11:00:17;;;;;;;6.80;2.10;;;;;;;28.01;28.47;99105.19;5008933;28;20205;-64
2022/04/26 11:02:45;;;;;;;4.03;1.57;;;;;;;27.88;28.80;99106.09;5012663;28;20230;-65
2022/04/26 11:05:15;;;;;;;8.13;2.13;;;;;;;28.30;27.95;99099.91;5012740;28;20194;-66
2022/04/26 11:07:44;;;;;;;2.20;1.50;;;;;;;28.54;28.33;99081.91;5012732;28;20587;-65
2022/04/26 11:10:13;;;;;;;8.77;8.17;;;;;;;28.77;28.86;99082.53;5012062;28;20686;-64
2022/04/26 11:12:41;;;;;;;9.20;7.27;;;;;;;28.97;28.47;99079.09;5012086;28;20206;-66
2022/04/26 11:15:09;;;;;;;5.57;3.20;;;;;;;28.86;28.16;99095.06;5011553;28;20194;-66
2022/04/26 11:17:38;;;;;;;9.43;3.20;;;;;;;28.71;28.26;99092.81;5011388;28;20218;-64
2022/04/26 11:20:07;;;;;;;9.67;2.87;;;;;;;28.88;27.42;99098.25;5011361;28;20252;-65
2022/04/26 11:22:44;;;;;;;5.07;3.07;;;;;;;28.81;27.99;99102.63;5011515;28;20218;-64
2022/04/26 11:28:03;;;;;;;9.90;2.23;;;;;;;29.13;27.31;99102.09;5007585;28;20208;-60
2022/04/26 11:30:35;;;;;;;3.83;2.23;;;;;;;29.19;27.13;99092.56;5012860;28;20196;-59
2022/04/26 11:33:05;;;;;;;5.70;2.43;;;;;;;28.53;29.89;99096.72;4992719;28;20230;-61
2022/04/26 11:35:32;;;;;;;3.17;2.20;;;;;;;28.30;31.71;99097.16;5002522;28;20276;-60
2022/04/26 11:38:03;;;;;;;6.00;2.13;;;;;;;28.14;32.45;99079.63;5012701;28;20642;-63
2022/04/26 11:40:31;;;;;;;6.17;2.30;;;;;;;28.12;31.21;99076.41;5012761;28;20248;-61
2022/04/26 11:42:59;;;;;;;3.97;1.70;;;;;;;27.69;31.76;99086.44;5012708;28;20218;-60
2022/04/26 11:45:29;;;;;;;6.40;1.80;;;;;;;27.59;31.95;99073.06;5012266;28;20240;-59
2022/04/26 11:47:56;;;;;;;8.93;2.07;;;;;;;27.70;31.15;99058.84;5012897;28;20220;-61
2022/04/26 11:50:26;;;;;;;2.73;1.70;;;;;;;27.23;31.72;99088.84;5013284;28;20198;-63
2022/04/26 11:52:59;;;;;;;7.60;2.43;;;;;;;27.26;32.29;99071.84;5012765;28;20252;-62
2022/04/26 11:55:28;;;;;;;5.13;1.50;;;;;;;27.36;32.53;99079.75;5013125;28;20262;-63
2022/04/26 11:58:09;;;;;;;6.03;2.27;;;;;;;27.34;32.63;99063.69;5011069;28;20205;-64
2022/04/26 12:00:37;;;;;;;8.83;2.10;;;;;;;27.59;33.09;99082.06;5011251;28;20186;-63
2022/04/26 12:03:07;;;;;;;5.57;1.90;;;;;;;27.46;32.62;99068.53;5007873;28;20222;-63
2022/04/26 12:05:40;;;;;;;3.97;1.90;;;;;;;27.66;32.92;99059.78;5002258;28;20254;-63
2022/04/26 12:08:10;;;;;;;7.37;2.10;;;;;;;27.40;33.27;99067.09;5011481;28;20212;-62
2022/04/26 12:10:37;;;;;;;4.73;1.77;;;;;;;27.28;32.54;99055.97;5011359;28;20656;-62
2022/04/26 12:13:05;;;;;;;4.47;1.87;;;;;;;27.07;33.16;99055.69;5011145;28;20198;-62
2022/04/26 12:15:34;;;;;;;7.90;1.97;;;;;;;26.72;33.00;99063.97;5012147;28;20353;-62
2022/04/26 12:18:09;;;;;;;4.97;1.80;;;;;;;26.76;32.76;99043.16;5010859;28;20737;-62
2022/04/26 12:20:55;;;;;;;6.03;2.00;;;;;;;26.52;32.96;99045.38;5010466;28;20615;-66
2022/04/26 12:23:23;;;;;;;6.10;1.73;;;;;;;26.22;33.02;99037.97;5012331;28;20313;-67
2022/04/26 12:25:57;;;;;;;6.57;1.73;;;;;;;26.00;31.80;99057.00;5011965;28;20226;-65
2022/04/26 12:28:25;;;;;;;9.40;2.33;;;;;;;26.24;31.67;99036.53;5008965;28;20193;-65
2022/04/26 12:30:52;;;;;;;4.67;1.70;;;;;;;26.35;31.34;99029.75;5008054;28;20668;-65
2022/04/26 12:33:30;;;;;;;4.80;1.80;;;;;;;26.29;31.69;99025.50;4989453;28;20704;-65
2022/04/26 12:36:04;;;;;;;6.40;1.83;;;;;;;26.58;31.86;99036.81;4991341;28;20560;-66
2022/04/26 12:38:44;;;;;;;5.77;1.63;;;;;;;26.53;31.95;99036.09;4991320;28;20643;-67
2022/04/26 12:41:11;;;;;;;5.53;2.03;;;;;;;26.65;31.91;99034.44;5004711;28;20186;-65
2022/04/26 12:43:38;;;;;;;3.40;1.90;;;;;;;26.66;32.79;99008.00;5010058;28;20225;-66
2022/04/26 12:46:07;;;;;;;8.97;1.80;;;;;;;26.71;32.53;99005.16;5009961;28;20198;-66
2022/04/26 12:51:22;;;;;;;5.17;2.10;;;;;;;26.89;31.35;98998.66;5012333;28;20655;-64
2022/04/26 12:53:50;;;;;;;4.37;1.90;;;;;;;26.81;30.69;98983.06;5011024;28;20193;-65
2022/04/26 12:56:17;;;;;;;3.43;1.60;;;;;;;26.79;30.49;98991.56;5012736;28;20205;-67
2022/04/26 12:58:45;;;;;;;7.70;2.00;;;;;;;26.58;30.96;99000.59;4996046;28;20218;-68
2022/04/26 13:01:13;;;;;;;5.93;2.00;;;;;;;26.69;31.36;98974.66;4992016;28;20194;-67
2022/04/26 13:03:41;;;;;;;5.03;1.90;;;;;;;26.65;32.68;98979.94;4992065;28;20234;-65
2022/04/26 13:06:10;;;;;;;2.73;2.00;;;;;;;26.68;31.10;99000.31;5005388;28;20663;-65
2022/04/26 13:08:39;;;;;;;11.70;1.63;;;;;;;26.74;30.79;98999.09;5009502;28;20190;-66
2022/04/26 13:11:06;;;;;;;6.80;1.87;;;;;;;26.67;30.92;98966.00;5009539;28;20929;-65
2022/04/26 13:13:34;;;;;;;3.87;2.30;;;;;;;26.75;31.15;99001.47;5009871;28;20260;-66
2022/04/26 13:16:01;;;;;;;10.17;2.20;;;;;;;26.66;30.42;98989.72;5009665;28;20797;-65
2022/04/26 13:18:28;;;;;;;1.73;1.57;;;;;;;26.66;30.95;99003.34;5010581;28;20257;-64
2022/04/26 13:20:55;;;;;;;5.20;1.63;;;;;;;26.39;32.30;98991.78;5011311;28;20209;-65
2022/04/26 13:23:22;;;;;;;4.17;1.40;;;;;;;26.46;31.68;99011.22;5011304;28;20731;-65
2022/04/26 13:25:51;;;;;;;3.03;1.57;;;;;;;26.10;31.93;98975.09;5011178;28;20627;-66
2022/04/26 13:28:18;;;;;;;1.87;1.17;;;;;;;26.11;31.90;98984.84;5011368;28;20194;-66
2022/04/26 13:30:44;;;;;;;4.37;1.43;;;;;;;26.34;30.68;98979.06;5009730;28;20194;-66
2022/04/26 13:33:12;;;;;;;3.63;1.40;;;;;;;26.45;30.13;98982.38;4992337;28;20261;-66
2022/04/26 13:35:39;;;;;;;7.87;1.83;;;;;;;26.59;31.29;98991.28;4992508;28;20211;-66
2022/04/26 13:38:10;;;;;;;6.33;1.53;;;;;;;26.54;30.90;98981.28;4992442;28;20199;-67
2022/04/26 13:40:38;;;;;;;7.30;1.60;;;;;;;26.44;30.62;98983.47;4999911;28;20599;-66
2022/04/26 13:43:07;;;;;;;7.00;1.80;;;;;;;26.41;30.43;98984.13;5011205;28;20580;-68
2022/04/26 13:45:35;;;;;;;4.50;1.70;;;;;;;26.55;30.97;98973.94;5011755;28;20224;-66
2022/04/26 13:48:02;;;;;;;10.67;2.00;;;;;;;26.64;30.01;98988.44;5012949;28;20194;-67
2022/04/26 13:50:30;;;;;;;6.00;1.83;;;;;;;26.74;30.08;98971.81;5015744;28;20268;-67
2022/04/26 13:52:57;;;;;;;8.27;1.60;;;;;;;26.87;29.66;98985.34;5014927;28;20256;-67
2022/04/26 13:55:26;;;;;;;4.10;2.03;;;;;;;26.99;30.61;98988.28;5015020;28;20737;-66
2022/04/26 13:57:54;;;;;;;5.30;1.97;;;;;;;27.03;30.51;98985.75;5006333;28;20694;-65
2022/04/26 14:00:22;;;;;;;4.03;1.87;;;;;;;26.92;30.77;98987.94;4995065;28;20698;-66
2022/04/26 14:02:49;;;;;;;9.70;2.20;;;;;;;26.86;30.51;98980.22;4995015;28;20233;-66
2022/04/26 14:05:17;;;;;;;5.50;2.20;;;;;;;26.70;30.60;98987.19;5003272;28;20190;-65
2022/04/26 14:07:44;;;;;;;2.43;1.57;;;;;;;26.49;31.15;98986.06;5014410;28;20194;-65
2022/04/26 14:10:11;;;;;;;4.10;1.90;;;;;;;26.44;31.04;98994.38;5014611;28;20204;-66
2022/04/26 14:12:38;;;;;;;6.77;1.73;;;;;;;26.46;31.22;98998.38;5015705;28;20608;-67
2022/04/26 14:23:20;;;;;;;8.10;2.13;;;;;;;26.15;31.84;98980.41;5014340;28;20214;-66
2022/04/26 14:25:46;;;;;;;2.40;1.80;;;;;;;25.87;32.78;98992.47;5014757;28;20546;-62
2022/04/26 14:28:13;;;;;;;7.00;2.20;;;;;;;25.84;34.31;98990.38;5014452;28;20256;-65
2022/04/26 14:30:40;;;;;;;2.87;1.77;;;;;;;25.79;34.69;98987.75;5011861;28;20190;-66
2022/04/26 14:33:08;;;;;;;2.80;1.80;;;;;;;25.85;34.99;98989.25;5011659;28;20198;-65
2022/04/26 14:35:35;;;;;;;4.87;2.90;;;;;;;25.78;36.02;98988.88;5014192;28;20186;-67
2022/04/26 14:38:02;;;;;;;2.70;2.10;;;;;;;25.63;37.20;99005.56;5014195;28;20730;-66
2022/04/26 14:40:29;;;;;;;6.70;2.00;;;;;;;25.20;38.21;99012.41;5013984;28;20197;-65
2022/04/26 14:42:56;;;;;;;5.77;2.13;;;;;;;25.22;38.75;99015.63;5013633;28;20214;-64
2022/04/26 14:45:23;;;;;;;5.03;3.40;;;;;;;25.13;39.88;99017.44;5013830;28;20252;-65
2022/04/26 14:47:49;;;;;;;7.43;2.90;;;;;;;25.15;39.76;99031.53;5013751;28;20198;-64
2022/04/26 14:50:18;;;;;;;5.63;2.50;;;;;;;24.85;40.07;99028.28;5013386;28;20194;-64
2022/04/26 14:52:45;;;;;;;6.50;2.90;;;;;;;24.72;40.57;99034.50;5013723;28;20193;-64
2022/04/26 14:55:12;;;;;;;5.50;2.60;;;;;;;24.47;41.42;99020.53;5013714;28;20200;-64
2022/04/26 14:57:39;;;;;;;7.80;2.70;;;;;;;24.45;41.22;99039.84;5011266;28;20197;-64
2022/04/26 15:00:08;;;;;;;6.47;2.80;;;;;;;24.01;42.36;99042.16;5012456;28;20196;-64
2022/04/26 15:02:38;;;;;;;7.23;2.33;;;;;;;24.11;42.21;99047.44;5013633;28;20274;-65
2022/04/26 15:05:07;;;;;;;3.00;1.83;;;;;;;24.07;42.20;99046.41;5013411;28;20204;-66
2022/04/26 15:10:17;;;;;;;6.83;2.43;;;;;;;23.57;44.25;99071.47;5012701;28;20568;-66
2022/04/26 15:18:12;;;;;;;4.63;2.20;;;;;;;23.25;48.94;99094.91;5014079;28;20664;-66
2022/04/26 15:20:42;;;;;;;2.87;1.97;;;;;;;23.02;48.64;99101.88;5013723;28;20196;-65
2022/04/26 15:23:10;;;;;;;4.73;2.93;;;;;;;22.96;51.41;99113.88;5013110;28;20268;-66
2022/04/26 15:25:37;;;;;;;4.17;2.67;;;;;;;22.96;53.13;99119.31;5013636;28;20200;-66
2022/04/26 15:28:04;;;;;;;5.33;2.33;;;;;;;22.86;54.13;99132.09;5013292;28;20589;-64
2022/04/26 15:30:30;;;;;;;4.50;2.60;;;;;;;22.70;55.56;99142.25;5013554;28;20218;-64
2022/04/26 15:32:57;;;;;;;6.37;2.37;;;;;;;22.47;55.16;99148.41;5012664;28;20772;-66
2022/04/26 15:35:24;;;;;;;8.67;2.80;;;;;;;22.40;59.44;99156.00;5012874;28;20249;-65
2022/04/26 15:37:50;;;;;;;4.00;2.40;;;;;;;22.40;59.69;99147.06;5013062;28;20198;-65
2022/04/26 15:40:19;;;;;;;5.37;2.80;;;;;;;22.34;60.06;99143.56;5013198;28;20566;-64
2022/04/26 15:42:46;;;;;;;3.67;2.57;;;;;;;22.34;59.52;99153.59;5012801;28;20222;-65
2022/04/26 15:45:13;;;;;;;9.40;3.80;;;;;;;22.32;61.19;99151.16;5013233;28;20586;-65
2022/04/26 15:47:39;;;;;;;3.90;3.10;;;;;;;22.17;64.18;99132.31;5012709;28;20194;-67
2022/04/26 15:50:07;;;;;;;10.17;5.87;;;;;;;22.23;66.72;99142.03;5011847;28;20195;-65
2022/04/26 15:52:34;;;;;;;7.50;3.20;;;;;;;22.00;68.13;99126.44;5013140;28;20206;-65